sensor_id;sensor_type;location;lat;lon;timestamp;temperature;humidity
30385;DHT22;17181;51.002;4.096;2022-08-19T00:00:30;20.10;92.50
30385;DHT22;17181;51.002;4.096;2022-08-19T00:02:56;20.10;92.60
30385;DHT22;17181;51.002;4.096;2022-08-19T00:05:22;20.10;92.70
30385;DHT22;17181;51.002;4.096;2022-08-19T00:07:48;20.10;92.80
30385;DHT22;17181;51.002;4.096;2022-08-19T00:10:16;20.00;92.70
30385;DHT22;17181;51.002;4.096;2022-08-19T00:12:42;20.00;92.80
30385;DHT22;17181;51.002;4.096;2022-08-19T00:15:11;20.00;92.80
30385;DHT22;17181;51.002;4.096;2022-08-19T00:17:43;20.00;92.90
30385;DHT22;17181;51.002;4.096;2022-08-19T00:20:11;19.90;93.00
30385;DHT22;17181;51.002;4.096;2022-08-19T00:22:38;19.90;93.10
30385;DHT22;17181;51.002;4.096;2022-08-19T00:25:05;19.90;93.20
30385;DHT22;17181;51.002;4.096;2022-08-19T00:27:31;19.80;93.30
30385;DHT22;17181;51.002;4.096;2022-08-19T00:29:57;19.80;93.40
30385;DHT22;17181;51.002;4.096;2022-08-19T00:32:24;19.80;93.50
30385;DHT22;17181;51.002;4.096;2022-08-19T00:34:51;19.70;93.60
30385;DHT22;17181;51.002;4.096;2022-08-19T00:37:19;19.70;93.70
30385;DHT22;17181;51.002;4.096;2022-08-19T00:39:49;19.70;93.80
30385;DHT22;17181;51.002;4.096;2022-08-19T00:42:19;19.60;93.80
30385;DHT22;17181;51.002;4.096;2022-08-19T00:44:45;19.60;93.90
30385;DHT22;17181;51.002;4.096;2022-08-19T00:47:11;19.60;94.00
30385;DHT22;17181;51.002;4.096;2022-08-19T00:49:41;19.50;94.10
30385;DHT22;17181;51.002;4.096;2022-08-19T00:52:19;19.50;94.50
30385;DHT22;17181;51.002;4.096;2022-08-19T00:54:46;19.50;94.40
30385;DHT22;17181;51.002;4.096;2022-08-19T00:57:16;19.40;94.40
30385;DHT22;17181;51.002;4.096;2022-08-19T00:59:44;19.40;94.50
30385;DHT22;17181;51.002;4.096;2022-08-19T01:02:12;19.40;94.70
30385;DHT22;17181;51.002;4.096;2022-08-19T01:04:38;19.30;95.00
30385;DHT22;17181;51.002;4.096;2022-08-19T01:07:04;19.30;95.10
30385;DHT22;17181;51.002;4.096;2022-08-19T01:09:30;19.30;95.20
30385;DHT22;17181;51.002;4.096;2022-08-19T01:11:57;19.30;95.20
30385;DHT22;17181;51.002;4.096;2022-08-19T01:14:23;19.30;95.40
30385;DHT22;17181;51.002;4.096;2022-08-19T01:16:50;19.30;95.50
30385;DHT22;17181;51.002;4.096;2022-08-19T01:19:33;19.40;95.70
30385;DHT22;17181;51.002;4.096;2022-08-19T01:24:32;19.40;95.90
30385;DHT22;17181;51.002;4.096;2022-08-19T01:26:58;19.40;95.90
30385;DHT22;17181;51.002;4.096;2022-08-19T01:29:24;19.40;96.00
30385;DHT22;17181;51.002;4.096;2022-08-19T01:31:50;19.30;96.30
30385;DHT22;17181;51.002;4.096;2022-08-19T01:34:18;19.30;96.50
30385;DHT22;17181;51.002;4.096;2022-08-19T01:36:46;19.30;96.80
30385;DHT22;17181;51.002;4.096;2022-08-19T01:39:23;19.30;96.90
30385;DHT22;17181;51.002;4.096;2022-08-19T01:41:49;19.30;97.10
30385;DHT22;17181;51.002;4.096;2022-08-19T01:44:16;19.30;97.20
30385;DHT22;17181;51.002;4.096;2022-08-19T01:46:43;19.30;97.30
30385;DHT22;17181;51.002;4.096;2022-08-19T01:49:09;19.30;97.40
30385;DHT22;17181;51.002;4.096;2022-08-19T01:51:35;19.30;97.40
30385;DHT22;17181;51.002;4.096;2022-08-19T01:54:02;19.30;97.40
30385;DHT22;17181;51.002;4.096;2022-08-19T01:56:28;19.30;97.40
30385;DHT22;17181;51.002;4.096;2022-08-19T01:59:02;19.20;97.40
30385;DHT22;17181;51.002;4.096;2022-08-19T02:01:29;19.20;97.50
30385;DHT22;17181;51.002;4.096;2022-08-19T02:03:58;19.20;97.50
30385;DHT22;17181;51.002;4.096;2022-08-19T02:06:24;19.20;97.50
30385;DHT22;17181;51.002;4.096;2022-08-19T02:08:49;19.10;97.50
30385;DHT22;17181;51.002;4.096;2022-08-19T02:11:21;19.10;97.70
30385;DHT22;17181;51.002;4.096;2022-08-19T02:13:47;19.10;97.80
30385;DHT22;17181;51.002;4.096;2022-08-19T02:16:13;19.10;97.90
30385;DHT22;17181;51.002;4.096;2022-08-19T02:18:38;19.00;97.90
30385;DHT22;17181;51.002;4.096;2022-08-19T02:21:04;19.00;97.90
30385;DHT22;17181;51.002;4.096;2022-08-19T02:23:31;19.00;97.90
30385;DHT22;17181;51.002;4.096;2022-08-19T02:25:57;19.00;98.00
30385;DHT22;17181;51.002;4.096;2022-08-19T02:28:22;18.90;98.30
30385;DHT22;17181;51.002;4.096;2022-08-19T02:30:48;18.90;98.00
30385;DHT22;17181;51.002;4.096;2022-08-19T02:33:14;18.90;98.00
30385;DHT22;17181;51.002;4.096;2022-08-19T02:35:42;18.90;98.10
30385;DHT22;17181;51.002;4.096;2022-08-19T02:38:08;18.80;98.20
30385;DHT22;17181;51.002;4.096;2022-08-19T02:40:58;18.80;98.30
30385;DHT22;17181;51.002;4.096;2022-08-19T02:43:25;18.80;98.40
30385;DHT22;17181;51.002;4.096;2022-08-19T02:45:52;18.80;98.60
30385;DHT22;17181;51.002;4.096;2022-08-19T02:48:22;18.70;98.70
30385;DHT22;17181;51.002;4.096;2022-08-19T02:50:50;18.70;98.90
30385;DHT22;17181;51.002;4.096;2022-08-19T02:53:26;18.60;99.00
30385;DHT22;17181;51.002;4.096;2022-08-19T02:55:53;18.60;99.10
30385;DHT22;17181;51.002;4.096;2022-08-19T02:58:20;18.60;99.10
30385;DHT22;17181;51.002;4.096;2022-08-19T03:00:54;18.60;99.20
30385;DHT22;17181;51.002;4.096;2022-08-19T03:03:20;18.60;99.30
30385;DHT22;17181;51.002;4.096;2022-08-19T03:05:46;18.60;99.30
30385;DHT22;17181;51.002;4.096;2022-08-19T03:08:13;18.50;99.30
30385;DHT22;17181;51.002;4.096;2022-08-19T03:10:41;18.50;99.40
30385;DHT22;17181;51.002;4.096;2022-08-19T03:13:10;18.50;99.50
30385;DHT22;17181;51.002;4.096;2022-08-19T03:15:40;18.50;99.50
30385;DHT22;17181;51.002;4.096;2022-08-19T03:18:06;18.40;99.50
30385;DHT22;17181;51.002;4.096;2022-08-19T03:20:31;18.40;99.60
30385;DHT22;17181;51.002;4.096;2022-08-19T03:22:58;18.40;99.80
30385;DHT22;17181;51.002;4.096;2022-08-19T03:25:24;18.40;99.90
30385;DHT22;17181;51.002;4.096;2022-08-19T03:27:49;18.30;99.90
30385;DHT22;17181;51.002;4.096;2022-08-19T03:30:15;18.30;99.90
30385;DHT22;17181;51.002;4.096;2022-08-19T03:32:41;18.30;99.90
30385;DHT22;17181;51.002;4.096;2022-08-19T03:35:07;18.30;99.90
30385;DHT22;17181;51.002;4.096;2022-08-19T03:37:33;18.30;99.90
30385;DHT22;17181;51.002;4.096;2022-08-19T03:39:59;18.20;99.90
30385;DHT22;17181;51.002;4.096;2022-08-19T03:42:24;18.20;99.90
30385;DHT22;17181;51.002;4.096;2022-08-19T03:44:52;18.20;99.90
30385;DHT22;17181;51.002;4.096;2022-08-19T03:47:18;18.20;99.90
30385;DHT22;17181;51.002;4.096;2022-08-19T03:49:44;18.20;99.90
30385;DHT22;17181;51.002;4.096;2022-08-19T03:52:10;18.20;99.90
30385;DHT22;17181;51.002;4.096;2022-08-19T03:54:37;18.20;99.90
30385;DHT22;17181;51.002;4.096;2022-08-19T03:57:04;18.20;99.90
30385;DHT22;17181;51.002;4.096;2022-08-19T03:59:32;18.10;99.90
30385;DHT22;17181;51.002;4.096;2022-08-19T04:02:01;18.10;99.90
30385;DHT22;17181;51.002;4.096;2022-08-19T04:04:27;18.10;99.90
30385;DHT22;17181;51.002;4.096;2022-08-19T04:06:54;18.10;99.90
30385;DHT22;17181;51.002;4.096;2022-08-19T04:09:20;18.10;99.90
30385;DHT22;17181;51.002;4.096;2022-08-19T04:11:50;18.10;99.90
30385;DHT22;17181;51.002;4.096;2022-08-19T04:14:26;18.10;99.90
30385;DHT22;17181;51.002;4.096;2022-08-19T04:16:52;18.00;99.90
30385;DHT22;17181;51.002;4.096;2022-08-19T04:19:19;18.00;99.90
30385;DHT22;17181;51.002;4.096;2022-08-19T04:21:46;18.00;99.90
30385;DHT22;17181;51.002;4.096;2022-08-19T04:24:13;18.00;99.90
30385;DHT22;17181;51.002;4.096;2022-08-19T04:26:39;18.00;99.90
30385;DHT22;17181;51.002;4.096;2022-08-19T04:29:13;18.00;99.90
30385;DHT22;17181;51.002;4.096;2022-08-19T04:31:39;18.00;99.90
30385;DHT22;17181;51.002;4.096;2022-08-19T04:34:08;18.00;99.90
30385;DHT22;17181;51.002;4.096;2022-08-19T04:36:37;18.00;99.90
30385;DHT22;17181;51.002;4.096;2022-08-19T04:39:16;17.90;99.90
30385;DHT22;17181;51.002;4.096;2022-08-19T04:41:43;17.90;99.90
30385;DHT22;17181;51.002;4.096;2022-08-19T04:44:27;17.90;99.90
30385;DHT22;17181;51.002;4.096;2022-08-19T04:46:56;17.90;99.90
30385;DHT22;17181;51.002;4.096;2022-08-19T04:49:23;17.90;99.90
30385;DHT22;17181;51.002;4.096;2022-08-19T04:51:50;17.90;99.90
30385;DHT22;17181;51.002;4.096;2022-08-19T04:54:17;17.90;99.90
30385;DHT22;17181;51.002;4.096;2022-08-19T04:56:45;17.80;99.90
30385;DHT22;17181;51.002;4.096;2022-08-19T04:59:11;17.90;99.90
30385;DHT22;17181;51.002;4.096;2022-08-19T05:01:37;17.90;99.90
30385;DHT22;17181;51.002;4.096;2022-08-19T05:04:05;17.80;99.90
30385;DHT22;17181;51.002;4.096;2022-08-19T05:06:32;17.80;99.90
30385;DHT22;17181;51.002;4.096;2022-08-19T05:09:00;17.80;99.90
30385;DHT22;17181;51.002;4.096;2022-08-19T05:11:30;17.80;99.90
30385;DHT22;17181;51.002;4.096;2022-08-19T05:13:57;17.80;99.90
30385;DHT22;17181;51.002;4.096;2022-08-19T05:16:25;17.80;99.90
30385;DHT22;17181;51.002;4.096;2022-08-19T05:18:51;17.80;99.90
30385;DHT22;17181;51.002;4.096;2022-08-19T05:21:36;17.80;99.90
30385;DHT22;17181;51.002;4.096;2022-08-19T05:24:22;17.80;99.90
30385;DHT22;17181;51.002;4.096;2022-08-19T05:26:50;17.80;99.90
30385;DHT22;17181;51.002;4.096;2022-08-19T05:29:20;17.90;99.90
30385;DHT22;17181;51.002;4.096;2022-08-19T05:31:47;17.90;99.90
30385;DHT22;17181;51.002;4.096;2022-08-19T05:34:17;17.90;99.90
30385;DHT22;17181;51.002;4.096;2022-08-19T05:36:44;17.90;99.90
30385;DHT22;17181;51.002;4.096;2022-08-19T05:39:13;17.90;99.90
30385;DHT22;17181;51.002;4.096;2022-08-19T05:41:46;18.00;99.90
30385;DHT22;17181;51.002;4.096;2022-08-19T05:44:13;18.00;99.90
30385;DHT22;17181;51.002;4.096;2022-08-19T05:46:40;18.00;99.90
30385;DHT22;17181;51.002;4.096;2022-08-19T05:49:08;18.10;99.90
30385;DHT22;17181;51.002;4.096;2022-08-19T05:51:35;18.10;99.90
30385;DHT22;17181;51.002;4.096;2022-08-19T05:54:03;18.20;99.90
30385;DHT22;17181;51.002;4.096;2022-08-19T05:56:31;18.20;99.90
30385;DHT22;17181;51.002;4.096;2022-08-19T05:58:58;18.30;99.90
30385;DHT22;17181;51.002;4.096;2022-08-19T06:01:25;18.30;99.90
30385;DHT22;17181;51.002;4.096;2022-08-19T06:03:51;18.40;99.90
30385;DHT22;17181;51.002;4.096;2022-08-19T06:06:17;18.40;99.90
30385;DHT22;17181;51.002;4.096;2022-08-19T06:08:43;18.50;99.90
30385;DHT22;17181;51.002;4.096;2022-08-19T06:14:15;18.70;99.90
30385;DHT22;17181;51.002;4.096;2022-08-19T06:16:42;18.70;99.90
30385;DHT22;17181;51.002;4.096;2022-08-19T06:19:13;18.80;99.90
30385;DHT22;17181;51.002;4.096;2022-08-19T06:21:40;18.90;99.90
30385;DHT22;17181;51.002;4.096;2022-08-19T06:24:08;19.00;99.90
30385;DHT22;17181;51.002;4.096;2022-08-19T06:26:36;19.00;99.90
30385;DHT22;17181;51.002;4.096;2022-08-19T06:29:04;19.10;99.90
30385;DHT22;17181;51.002;4.096;2022-08-19T06:31:33;19.20;99.90
30385;DHT22;17181;51.002;4.096;2022-08-19T06:34:01;19.30;99.90
30385;DHT22;17181;51.002;4.096;2022-08-19T06:36:35;19.40;99.90
30385;DHT22;17181;51.002;4.096;2022-08-19T06:39:04;19.40;99.90
30385;DHT22;17181;51.002;4.096;2022-08-19T06:41:34;19.50;99.90
30385;DHT22;17181;51.002;4.096;2022-08-19T06:44:01;19.50;99.90
30385;DHT22;17181;51.002;4.096;2022-08-19T06:46:27;19.60;99.90
30385;DHT22;17181;51.002;4.096;2022-08-19T06:48:54;19.60;99.90
30385;DHT22;17181;51.002;4.096;2022-08-19T06:51:21;19.70;99.90
30385;DHT22;17181;51.002;4.096;2022-08-19T06:53:52;19.70;99.90
30385;DHT22;17181;51.002;4.096;2022-08-19T06:56:22;19.80;99.90
30385;DHT22;17181;51.002;4.096;2022-08-19T06:58:50;19.90;99.90
30385;DHT22;17181;51.002;4.096;2022-08-19T07:01:19;19.90;99.90
30385;DHT22;17181;51.002;4.096;2022-08-19T07:03:45;20.00;99.90
30385;DHT22;17181;51.002;4.096;2022-08-19T07:06:14;20.00;99.90
30385;DHT22;17181;51.002;4.096;2022-08-19T07:08:47;20.10;99.90
30385;DHT22;17181;51.002;4.096;2022-08-19T07:11:15;20.20;99.90
30385;DHT22;17181;51.002;4.096;2022-08-19T07:13:41;20.30;99.90
30385;DHT22;17181;51.002;4.096;2022-08-19T07:16:14;20.40;99.90
30385;DHT22;17181;51.002;4.096;2022-08-19T07:18:40;20.50;99.90
30385;DHT22;17181;51.002;4.096;2022-08-19T07:21:21;20.60;99.90
30385;DHT22;17181;51.002;4.096;2022-08-19T07:23:48;20.70;99.90
30385;DHT22;17181;51.002;4.096;2022-08-19T07:26:24;20.70;99.90
30385;DHT22;17181;51.002;4.096;2022-08-19T07:28:50;20.80;99.90
30385;DHT22;17181;51.002;4.096;2022-08-19T07:31:22;20.80;99.90
30385;DHT22;17181;51.002;4.096;2022-08-19T07:33:50;20.90;99.90
30385;DHT22;17181;51.002;4.096;2022-08-19T07:36:19;21.00;99.90
30385;DHT22;17181;51.002;4.096;2022-08-19T07:38:47;21.10;99.90
30385;DHT22;17181;51.002;4.096;2022-08-19T07:41:19;21.10;99.90
30385;DHT22;17181;51.002;4.096;2022-08-19T07:43:46;21.10;99.90
30385;DHT22;17181;51.002;4.096;2022-08-19T07:46:12;21.10;99.90
30385;DHT22;17181;51.002;4.096;2022-08-19T07:48:43;21.20;99.90
30385;DHT22;17181;51.002;4.096;2022-08-19T07:51:11;21.20;99.90
30385;DHT22;17181;51.002;4.096;2022-08-19T07:53:37;21.20;99.90
30385;DHT22;17181;51.002;4.096;2022-08-19T07:56:04;21.20;99.90
30385;DHT22;17181;51.002;4.096;2022-08-19T07:58:33;21.30;99.90
30385;DHT22;17181;51.002;4.096;2022-08-19T08:00:59;21.20;99.90
30385;DHT22;17181;51.002;4.096;2022-08-19T08:03:26;21.30;99.90
30385;DHT22;17181;51.002;4.096;2022-08-19T08:06:12;21.40;99.90
30385;DHT22;17181;51.002;4.096;2022-08-19T08:08:58;21.40;99.90
30385;DHT22;17181;51.002;4.096;2022-08-19T08:14:03;21.50;99.90
30385;DHT22;17181;51.002;4.096;2022-08-19T08:16:33;21.50;99.90
30385;DHT22;17181;51.002;4.096;2022-08-19T08:18:59;21.50;99.90
30385;DHT22;17181;51.002;4.096;2022-08-19T08:21:25;21.60;99.90
30385;DHT22;17181;51.002;4.096;2022-08-19T08:23:50;21.60;99.90
30385;DHT22;17181;51.002;4.096;2022-08-19T08:26:18;21.60;99.90
30385;DHT22;17181;51.002;4.096;2022-08-19T08:28:44;21.70;99.90
30385;DHT22;17181;51.002;4.096;2022-08-19T08:31:12;21.70;99.90
30385;DHT22;17181;51.002;4.096;2022-08-19T08:33:38;21.70;99.90
30385;DHT22;17181;51.002;4.096;2022-08-19T08:36:08;21.70;99.90
30385;DHT22;17181;51.002;4.096;2022-08-19T08:38:34;21.80;99.90
30385;DHT22;17181;51.002;4.096;2022-08-19T08:41:07;21.80;99.90
30385;DHT22;17181;51.002;4.096;2022-08-19T08:43:39;21.80;99.90
30385;DHT22;17181;51.002;4.096;2022-08-19T08:46:15;21.90;99.90
30385;DHT22;17181;51.002;4.096;2022-08-19T08:48:57;21.90;99.90
30385;DHT22;17181;51.002;4.096;2022-08-19T08:51:38;21.80;99.90
30385;DHT22;17181;51.002;4.096;2022-08-19T08:54:08;21.80;99.90
30385;DHT22;17181;51.002;4.096;2022-08-19T08:56:38;21.90;99.90
30385;DHT22;17181;51.002;4.096;2022-08-19T08:59:16;21.90;99.90
30385;DHT22;17181;51.002;4.096;2022-08-19T09:01:44;22.00;99.90
30385;DHT22;17181;51.002;4.096;2022-08-19T09:04:12;22.00;99.90
30385;DHT22;17181;51.002;4.096;2022-08-19T09:09:18;22.10;99.90
30385;DHT22;17181;51.002;4.096;2022-08-19T09:16:58;22.20;99.90
30385;DHT22;17181;51.002;4.096;2022-08-19T09:19:25;22.20;99.90
30385;DHT22;17181;51.002;4.096;2022-08-19T09:21:51;22.20;99.90
30385;DHT22;17181;51.002;4.096;2022-08-19T09:24:17;22.20;99.90
30385;DHT22;17181;51.002;4.096;2022-08-19T09:26:43;22.20;99.90
30385;DHT22;17181;51.002;4.096;2022-08-19T09:29:09;22.20;99.90
30385;DHT22;17181;51.002;4.096;2022-08-19T09:31:36;22.20;99.90
30385;DHT22;17181;51.002;4.096;2022-08-19T09:34:02;22.20;99.90
30385;DHT22;17181;51.002;4.096;2022-08-19T09:36:30;22.20;99.90
30385;DHT22;17181;51.002;4.096;2022-08-19T09:38:59;22.30;99.90
30385;DHT22;17181;51.002;4.096;2022-08-19T09:41:26;22.30;99.90
30385;DHT22;17181;51.002;4.096;2022-08-19T09:43:53;22.30;99.90
30385;DHT22;17181;51.002;4.096;2022-08-19T09:46:23;22.30;99.90
30385;DHT22;17181;51.002;4.096;2022-08-19T09:48:50;22.40;99.90
30385;DHT22;17181;51.002;4.096;2022-08-19T09:51:21;22.40;99.90
30385;DHT22;17181;51.002;4.096;2022-08-19T09:53:47;22.50;99.90
30385;DHT22;17181;51.002;4.096;2022-08-19T09:56:17;22.60;99.90
30385;DHT22;17181;51.002;4.096;2022-08-19T09:58:43;22.60;99.90
30385;DHT22;17181;51.002;4.096;2022-08-19T10:01:09;22.60;99.90
30385;DHT22;17181;51.002;4.096;2022-08-19T10:03:36;22.70;99.90
30385;DHT22;17181;51.002;4.096;2022-08-19T10:06:04;22.80;99.90
30385;DHT22;17181;51.002;4.096;2022-08-19T10:08:34;22.80;99.90
30385;DHT22;17181;51.002;4.096;2022-08-19T10:11:01;22.80;99.90
30385;DHT22;17181;51.002;4.096;2022-08-19T10:13:28;22.80;99.90
30385;DHT22;17181;51.002;4.096;2022-08-19T10:16:01;22.70;99.90
30385;DHT22;17181;51.002;4.096;2022-08-19T10:18:27;22.80;99.90
30385;DHT22;17181;51.002;4.096;2022-08-19T10:21:10;22.90;99.90
30385;DHT22;17181;51.002;4.096;2022-08-19T10:23:37;22.90;99.90
30385;DHT22;17181;51.002;4.096;2022-08-19T10:26:06;23.00;99.90
30385;DHT22;17181;51.002;4.096;2022-08-19T10:28:36;23.10;99.90
30385;DHT22;17181;51.002;4.096;2022-08-19T10:31:13;23.20;99.90
30385;DHT22;17181;51.002;4.096;2022-08-19T10:33:40;23.20;99.90
30385;DHT22;17181;51.002;4.096;2022-08-19T10:36:16;23.20;99.90
30385;DHT22;17181;51.002;4.096;2022-08-19T10:38:43;23.30;99.90
30385;DHT22;17181;51.002;4.096;2022-08-19T10:41:16;23.30;99.90
30385;DHT22;17181;51.002;4.096;2022-08-19T10:43:43;23.30;99.90
30385;DHT22;17181;51.002;4.096;2022-08-19T10:46:12;23.40;99.90
30385;DHT22;17181;51.002;4.096;2022-08-19T10:48:39;23.30;99.90
30385;DHT22;17181;51.002;4.096;2022-08-19T10:51:05;23.40;99.90
30385;DHT22;17181;51.002;4.096;2022-08-19T10:53:50;23.40;99.90
30385;DHT22;17181;51.002;4.096;2022-08-19T10:56:17;23.40;99.90
30385;DHT22;17181;51.002;4.096;2022-08-19T10:59:02;23.50;99.90
30385;DHT22;17181;51.002;4.096;2022-08-19T11:01:30;23.60;99.90
30385;DHT22;17181;51.002;4.096;2022-08-19T11:03:57;23.70;99.90
30385;DHT22;17181;51.002;4.096;2022-08-19T11:06:23;23.90;99.90
30385;DHT22;17181;51.002;4.096;2022-08-19T11:08:51;24.00;99.90
30385;DHT22;17181;51.002;4.096;2022-08-19T11:11:17;24.00;99.90
30385;DHT22;17181;51.002;4.096;2022-08-19T11:13:43;24.10;99.90
30385;DHT22;17181;51.002;4.096;2022-08-19T11:16:13;24.20;99.90
30385;DHT22;17181;51.002;4.096;2022-08-19T11:18:42;24.30;99.90
30385;DHT22;17181;51.002;4.096;2022-08-19T11:21:24;24.50;99.90
30385;DHT22;17181;51.002;4.096;2022-08-19T11:23:53;24.60;99.90
30385;DHT22;17181;51.002;4.096;2022-08-19T11:26:21;24.80;99.90
30385;DHT22;17181;51.002;4.096;2022-08-19T11:28:48;24.90;99.60
30385;DHT22;17181;51.002;4.096;2022-08-19T11:31:18;25.10;99.60
30385;DHT22;17181;51.002;4.096;2022-08-19T11:33:45;25.10;99.00
30385;DHT22;17181;51.002;4.096;2022-08-19T11:36:12;25.20;98.50
30385;DHT22;17181;51.002;4.096;2022-08-19T11:38:38;25.20;98.10
30385;DHT22;17181;51.002;4.096;2022-08-19T11:41:07;25.30;98.00
30385;DHT22;17181;51.002;4.096;2022-08-19T11:43:34;25.30;98.00
30385;DHT22;17181;51.002;4.096;2022-08-19T11:46:04;25.40;97.80
30385;DHT22;17181;51.002;4.096;2022-08-19T11:48:33;25.60;97.70
30385;DHT22;17181;51.002;4.096;2022-08-19T11:50:59;25.70;97.30
30385;DHT22;17181;51.002;4.096;2022-08-19T11:53:24;25.80;96.90
30385;DHT22;17181;51.002;4.096;2022-08-19T11:55:53;25.80;96.50
30385;DHT22;17181;51.002;4.096;2022-08-19T11:58:22;25.80;96.30
30385;DHT22;17181;51.002;4.096;2022-08-19T12:00:48;25.80;96.00
30385;DHT22;17181;51.002;4.096;2022-08-19T12:03:14;25.80;96.20
30385;DHT22;17181;51.002;4.096;2022-08-19T12:05:40;25.80;96.00
30385;DHT22;17181;51.002;4.096;2022-08-19T12:08:07;25.70;95.90
30385;DHT22;17181;51.002;4.096;2022-08-19T12:10:34;25.60;95.80
30385;DHT22;17181;51.002;4.096;2022-08-19T12:13:00;25.50;95.90
30385;DHT22;17181;51.002;4.096;2022-08-19T12:15:27;25.30;96.00
30385;DHT22;17181;51.002;4.096;2022-08-19T12:17:56;25.20;96.20
30385;DHT22;17181;51.002;4.096;2022-08-19T12:20:23;25.10;96.30
30385;DHT22;17181;51.002;4.096;2022-08-19T12:22:51;25.20;96.40
30385;DHT22;17181;51.002;4.096;2022-08-19T12:25:17;25.20;96.20
30385;DHT22;17181;51.002;4.096;2022-08-19T12:27:43;25.20;96.30
30385;DHT22;17181;51.002;4.096;2022-08-19T12:30:11;25.30;96.30
30385;DHT22;17181;51.002;4.096;2022-08-19T12:32:37;25.50;96.20
30385;DHT22;17181;51.002;4.096;2022-08-19T12:35:05;25.60;96.10
30385;DHT22;17181;51.002;4.096;2022-08-19T12:37:31;25.80;95.70
30385;DHT22;17181;51.002;4.096;2022-08-19T12:39:58;25.90;95.50
30385;DHT22;17181;51.002;4.096;2022-08-19T12:42:24;26.00;95.10
30385;DHT22;17181;51.002;4.096;2022-08-19T12:44:50;26.00;94.60
30385;DHT22;17181;51.002;4.096;2022-08-19T12:47:17;26.10;94.70
30385;DHT22;17181;51.002;4.096;2022-08-19T12:49:43;26.20;94.50
30385;DHT22;17181;51.002;4.096;2022-08-19T12:52:10;26.30;94.30
30385;DHT22;17181;51.002;4.096;2022-08-19T12:54:36;26.30;94.10
30385;DHT22;17181;51.002;4.096;2022-08-19T12:57:07;26.30;93.50
30385;DHT22;17181;51.002;4.096;2022-08-19T12:59:37;26.20;93.10
30385;DHT22;17181;51.002;4.096;2022-08-19T13:02:05;26.00;93.10
30385;DHT22;17181;51.002;4.096;2022-08-19T13:04:32;25.90;93.40
30385;DHT22;17181;51.002;4.096;2022-08-19T13:07:00;25.90;93.60
30385;DHT22;17181;51.002;4.096;2022-08-19T13:09:26;25.90;93.70
30385;DHT22;17181;51.002;4.096;2022-08-19T13:11:52;25.90;93.80
30385;DHT22;17181;51.002;4.096;2022-08-19T13:14:18;26.00;93.60
30385;DHT22;17181;51.002;4.096;2022-08-19T13:16:46;26.00;93.40
30385;DHT22;17181;51.002;4.096;2022-08-19T13:19:12;26.00;93.30
30385;DHT22;17181;51.002;4.096;2022-08-19T13:21:38;25.90;93.80
30385;DHT22;17181;51.002;4.096;2022-08-19T13:24:04;25.80;93.60
30385;DHT22;17181;51.002;4.096;2022-08-19T13:26:30;25.80;94.00
30385;DHT22;17181;51.002;4.096;2022-08-19T13:28:56;25.90;94.10
30385;DHT22;17181;51.002;4.096;2022-08-19T13:31:41;26.10;94.00
30385;DHT22;17181;51.002;4.096;2022-08-19T13:34:31;26.40;94.10
30385;DHT22;17181;51.002;4.096;2022-08-19T13:36:59;26.80;93.40
30385;DHT22;17181;51.002;4.096;2022-08-19T13:39:28;27.00;92.90
30385;DHT22;17181;51.002;4.096;2022-08-19T13:41:54;27.00;92.40
30385;DHT22;17181;51.002;4.096;2022-08-19T13:44:21;27.00;92.20
30385;DHT22;17181;51.002;4.096;2022-08-19T13:46:48;27.00;91.90
30385;DHT22;17181;51.002;4.096;2022-08-19T13:49:16;27.00;91.50
30385;DHT22;17181;51.002;4.096;2022-08-19T13:51:43;26.90;91.10
30385;DHT22;17181;51.002;4.096;2022-08-19T13:54:10;26.90;91.10
30385;DHT22;17181;51.002;4.096;2022-08-19T13:56:43;26.90;91.40
30385;DHT22;17181;51.002;4.096;2022-08-19T13:59:09;26.90;91.30
30385;DHT22;17181;51.002;4.096;2022-08-19T14:01:36;26.80;91.10
30385;DHT22;17181;51.002;4.096;2022-08-19T14:04:03;26.60;91.00
30385;DHT22;17181;51.002;4.096;2022-08-19T14:06:29;26.30;91.30
30385;DHT22;17181;51.002;4.096;2022-08-19T14:08:55;26.00;91.80
30385;DHT22;17181;51.002;4.096;2022-08-19T14:11:20;25.80;92.30
30385;DHT22;17181;51.002;4.096;2022-08-19T14:13:49;25.50;92.80
30385;DHT22;17181;51.002;4.096;2022-08-19T14:16:15;25.40;93.20
30385;DHT22;17181;51.002;4.096;2022-08-19T14:18:41;25.30;93.60
30385;DHT22;17181;51.002;4.096;2022-08-19T18:45:05;22.20;99.90
30385;DHT22;17181;51.002;4.096;2022-08-19T18:47:50;22.10;99.90
30385;DHT22;17181;51.002;4.096;2022-08-19T18:50:34;22.00;99.90
30385;DHT22;17181;51.002;4.096;2022-08-19T18:53:01;22.00;99.90
30385;DHT22;17181;51.002;4.096;2022-08-19T18:55:27;21.90;99.90
30385;DHT22;17181;51.002;4.096;2022-08-19T18:57:53;21.80;99.90
30385;DHT22;17181;51.002;4.096;2022-08-19T19:00:19;21.80;99.90
30385;DHT22;17181;51.002;4.096;2022-08-19T19:02:45;21.80;99.90
30385;DHT22;17181;51.002;4.096;2022-08-19T19:05:13;21.70;99.90
30385;DHT22;17181;51.002;4.096;2022-08-19T19:07:40;21.70;99.90
30385;DHT22;17181;51.002;4.096;2022-08-19T19:10:06;21.60;99.90
30385;DHT22;17181;51.002;4.096;2022-08-19T19:12:41;21.60;99.90
30385;DHT22;17181;51.002;4.096;2022-08-19T19:15:07;21.50;99.90
30385;DHT22;17181;51.002;4.096;2022-08-19T19:17:33;21.40;99.90
30385;DHT22;17181;51.002;4.096;2022-08-19T19:19:59;21.30;99.90
30385;DHT22;17181;51.002;4.096;2022-08-19T19:22:25;21.20;99.90
30385;DHT22;17181;51.002;4.096;2022-08-19T19:24:51;21.20;99.90
30385;DHT22;17181;51.002;4.096;2022-08-19T19:27:19;21.10;99.90
30385;DHT22;17181;51.002;4.096;2022-08-19T19:29:46;21.00;99.90
30385;DHT22;17181;51.002;4.096;2022-08-19T19:34:43;20.70;99.90
30385;DHT22;17181;51.002;4.096;2022-08-19T19:37:09;20.60;99.90
30385;DHT22;17181;51.002;4.096;2022-08-19T19:39:35;20.50;99.90
30385;DHT22;17181;51.002;4.096;2022-08-19T19:42:06;20.50;99.90
30385;DHT22;17181;51.002;4.096;2022-08-19T19:44:40;20.50;99.90
30385;DHT22;17181;51.002;4.096;2022-08-19T19:47:07;20.50;99.90
30385;DHT22;17181;51.002;4.096;2022-08-19T19:49:33;20.40;99.90
30385;DHT22;17181;51.002;4.096;2022-08-19T19:51:59;20.50;99.90
30385;DHT22;17181;51.002;4.096;2022-08-19T19:54:25;20.40;99.90
30385;DHT22;17181;51.002;4.096;2022-08-19T19:56:51;20.50;99.90
30385;DHT22;17181;51.002;4.096;2022-08-19T19:59:16;20.40;99.90
30385;DHT22;17181;51.002;4.096;2022-08-19T20:01:43;20.40;99.90
30385;DHT22;17181;51.002;4.096;2022-08-19T20:04:14;20.50;99.90
30385;DHT22;17181;51.002;4.096;2022-08-19T20:06:40;20.40;99.90
30385;DHT22;17181;51.002;4.096;2022-08-19T20:09:06;20.40;99.90
30385;DHT22;17181;51.002;4.096;2022-08-19T20:11:44;20.50;99.90
30385;DHT22;17181;51.002;4.096;2022-08-19T20:14:19;20.50;99.90
30385;DHT22;17181;51.002;4.096;2022-08-19T20:16:47;20.50;99.90
30385;DHT22;17181;51.002;4.096;2022-08-19T20:19:16;20.50;99.90